createdAt,value
2022-09-02T00:01:02.429Z,5.10
2022-09-02T00:03:37.294Z,4.50
2022-09-02T00:06:09.738Z,4.50
2022-09-02T00:08:42.731Z,7.10
2022-09-02T00:11:18.696Z,3.60
2022-09-02T00:13:52.504Z,4.60
2022-09-02T00:16:25.241Z,4.60
2022-09-02T00:18:58.014Z,3.10
2022-09-02T00:21:30.711Z,3.10
2022-09-02T00:24:02.913Z,4.40
2022-09-02T00:26:34.883Z,3.90
2022-09-02T00:29:07.193Z,5.20
2022-09-02T00:31:39.573Z,4.90
2022-09-02T00:34:12.755Z,3.90
2022-09-02T00:36:44.795Z,4.40
2022-09-02T00:39:17.765Z,5.50
2022-09-02T00:41:49.842Z,5.30
2022-09-02T00:44:22.566Z,2.90
2022-09-02T00:46:54.487Z,4.30
2022-09-02T00:49:30.008Z,3.30
2022-09-02T00:52:07.377Z,2.40
2022-09-02T00:54:46.729Z,3.00
2022-09-02T00:57:23.576Z,4.50
2022-09-02T01:00:02.009Z,2.20
2022-09-02T01:02:34.339Z,2.90
2022-09-02T01:05:10.971Z,4.90
2022-09-02T01:07:45.093Z,2.10
2022-09-02T01:10:20.313Z,3.70
2022-09-02T01:12:55.849Z,4.50
2022-09-02T01:15:30.294Z,4.30
2022-09-02T01:18:02.743Z,4.60
2022-09-02T01:20:35.407Z,4.90
2022-09-02T01:23:07.876Z,3.10
2022-09-02T01:25:40.167Z,2.10
2022-09-02T01:28:15.326Z,4.80
2022-09-02T01:30:49.971Z,2.60
2022-09-02T01:33:25.403Z,2.40
2022-09-02T01:35:58.501Z,3.30
2022-09-02T01:38:30.892Z,4.00
2022-09-02T01:41:02.806Z,2.50
2022-09-02T01:43:34.765Z,2.80
2022-09-02T01:46:07.051Z,2.10
2022-09-02T01:48:39.393Z,2.60
2022-09-02T01:51:16.816Z,2.80
2022-09-02T01:53:50.408Z,2.60
2022-09-02T01:56:22.681Z,3.70
2022-09-02T01:58:56.513Z,3.60
2022-09-02T02:01:28.467Z,2.90
2022-09-02T02:04:02.498Z,3.30
2022-09-02T02:06:34.542Z,3.50
2022-09-02T02:09:07.093Z,3.50
2022-09-02T02:11:39.651Z,3.40
2022-09-02T02:14:12.801Z,4.30
2022-09-02T02:16:51.913Z,2.50
2022-09-02T02:19:23.825Z,3.60
2022-09-02T02:21:55.932Z,3.60
2022-09-02T02:24:28.044Z,3.00
2022-09-02T02:27:00.084Z,2.70
2022-09-02T02:29:32.700Z,7.30
2022-09-02T02:32:05.146Z,3.10
2022-09-02T02:34:38.118Z,4.20
2022-09-02T02:37:12.362Z,2.80
2022-09-02T02:39:45.618Z,5.10
2022-09-02T02:42:18.017Z,3.20
2022-09-02T02:44:49.925Z,3.90
2022-09-02T02:47:22.464Z,5.60
2022-09-02T02:49:54.699Z,2.40
2022-09-02T02:52:27.254Z,2.10
2022-09-02T02:54:59.247Z,2.70
2022-09-02T02:57:31.309Z,2.70
2022-09-02T03:00:08.715Z,4.80
2022-09-02T03:02:41.036Z,5.60
2022-09-02T03:05:15.193Z,4.40
2022-09-02T03:07:47.435Z,2.40
2022-09-02T03:10:20.680Z,5.60
2022-09-02T03:12:52.688Z,4.60
2022-09-02T03:15:25.170Z,3.50
2022-09-02T03:17:59.420Z,3.00
2022-09-02T03:20:31.581Z,3.30
2022-09-02T03:23:05.954Z,4.30
2022-09-02T03:25:38.762Z,3.20
2022-09-02T03:28:18.008Z,4.50
2022-09-02T03:30:50.657Z,4.40
2022-09-02T03:33:23.173Z,2.70
2022-09-02T03:35:55.253Z,5.90
2022-09-02T03:38:27.562Z,5.40
2022-09-02T03:41:00.359Z,4.30
2022-09-02T03:43:32.509Z,3.40
2022-09-02T03:46:05.455Z,5.60
2022-09-02T03:48:37.883Z,3.30
2022-09-02T03:51:10.523Z,7.30
2022-09-02T03:53:42.503Z,4.20
2022-09-02T03:56:16.118Z,7.20
2022-09-02T03:58:50.243Z,3.80
2022-09-02T04:01:29.051Z,4.80
2022-09-02T04:04:07.743Z,3.40
2022-09-02T04:06:41.379Z,5.90
2022-09-02T04:09:13.306Z,6.60
2022-09-02T04:11:45.620Z,4.40
2022-09-02T04:14:17.948Z,7.80
2022-09-02T04:16:50.016Z,5.30
2022-09-02T04:19:22.153Z,3.70
2022-09-02T04:21:54.442Z,9.30
2022-09-02T04:24:26.712Z,9.00
2022-09-02T04:27:03.862Z,6.20
2022-09-02T04:29:37.147Z,4.20
2022-09-02T04:32:09.358Z,8.70
2022-09-02T04:34:43.181Z,8.00
2022-09-02T04:37:15.318Z,5.10
2022-09-02T04:39:47.379Z,5.60
2022-09-02T04:42:19.918Z,4.80
2022-09-02T04:44:53.824Z,7.10
2022-09-02T04:47:27.853Z,4.60
2022-09-02T04:50:00.245Z,9.20
2022-09-02T04:52:32.315Z,7.80
2022-09-02T04:55:07.117Z,5.80
2022-09-02T04:57:39.487Z,4.70
2022-09-02T05:00:13.520Z,8.80
2022-09-02T05:02:45.466Z,6.30
2022-09-02T05:05:18.225Z,7.00
2022-09-02T05:07:50.401Z,6.50
2022-09-02T05:10:22.642Z,8.00
2022-09-02T05:12:55.261Z,4.20
2022-09-02T05:15:27.878Z,3.30
2022-09-02T05:18:00.750Z,5.00
2022-09-02T05:20:39.587Z,9.70
2022-09-02T05:23:11.803Z,5.70
2022-09-02T05:25:45.131Z,6.70
2022-09-02T05:28:17.872Z,4.00
2022-09-02T05:30:49.944Z,5.50
2022-09-02T05:33:22.939Z,5.00
2022-09-02T05:35:54.997Z,5.10
2022-09-02T05:38:28.004Z,6.00
2022-09-02T05:41:00.773Z,2.40
2022-09-02T05:43:32.972Z,5.50
2022-09-02T05:46:09.551Z,6.20
2022-09-02T05:49:00.017Z,4.10
2022-09-02T05:51:33.714Z,4.60
2022-09-02T05:54:06.483Z,5.10
2022-09-02T05:56:41.110Z,4.00
2022-09-02T05:59:18.320Z,2.60
2022-09-02T06:01:51.722Z,4.00
2022-09-02T06:04:26.034Z,3.50
2022-09-02T06:06:58.202Z,3.70
2022-09-02T06:09:30.718Z,3.00
2022-09-02T06:12:03.296Z,4.40
2022-09-02T06:14:38.087Z,4.90
2022-09-02T06:17:11.148Z,7.90
2022-09-02T06:19:52.743Z,3.80
2022-09-02T06:22:27.287Z,5.80
2022-09-02T06:24:59.842Z,6.00
2022-09-02T06:27:32.009Z,5.40
2022-09-02T06:30:06.317Z,4.00
2022-09-02T06:32:39.459Z,4.90
2022-09-02T06:35:14.836Z,11.30
2022-09-02T06:37:50.859Z,3.70
2022-09-02T06:40:24.224Z,4.80
2022-09-02T06:43:00.506Z,4.10
2022-09-02T06:45:42.058Z,2.30
2022-09-02T06:48:15.510Z,10.10
2022-09-02T06:50:48.775Z,2.70
2022-09-02T06:53:21.456Z,6.50
2022-09-02T06:55:53.626Z,3.60
2022-09-02T06:58:26.237Z,8.10
2022-09-02T07:00:58.665Z,2.40
2022-09-02T07:03:49.130Z,3.80
2022-09-02T07:06:22.746Z,2.50
2022-09-02T07:08:55.323Z,5.90
2022-09-02T07:11:28.113Z,1.90
2022-09-02T07:14:01.876Z,4.20
2022-09-02T07:16:36.821Z,2.90
2022-09-02T07:19:14.091Z,4.10
2022-09-02T07:21:47.939Z,6.80
2022-09-02T07:24:20.772Z,2.60
2022-09-02T07:26:55.438Z,5.30
2022-09-02T07:29:29.075Z,3.10
2022-09-02T07:32:02.341Z,3.70
2022-09-02T07:34:34.601Z,1.60
2022-09-02T07:37:10.613Z,4.90
2022-09-02T07:39:44.099Z,3.00
2022-09-02T07:42:17.141Z,6.20
2022-09-02T07:44:51.196Z,3.70
2022-09-02T07:47:23.220Z,3.40
2022-09-02T07:52:50.669Z,2.70
2022-09-02T07:55:23.546Z,2.10
2022-09-02T07:57:56.107Z,1.70
2022-09-02T08:00:29.025Z,2.70
2022-09-02T08:03:05.812Z,1.50
2022-09-02T08:05:45.026Z,2.00
2022-09-02T08:08:20.263Z,1.60
2022-09-02T08:10:54.307Z,5.10
2022-09-02T08:13:27.061Z,2.40
2022-09-02T08:16:00.123Z,3.70
2022-09-02T08:18:32.352Z,6.40
2022-09-02T08:21:05.115Z,2.30
2022-09-02T08:23:37.833Z,1.50
2022-09-02T08:26:11.356Z,3.60
2022-09-02T08:28:43.416Z,5.50
2022-09-02T08:31:15.472Z,3.60
2022-09-02T08:33:47.658Z,3.30
2022-09-02T08:36:21.189Z,1.70
2022-09-02T08:38:53.116Z,2.50
2022-09-02T08:41:27.270Z,2.30
2022-09-02T08:44:02.442Z,3.00
2022-09-02T08:46:36.080Z,5.40
2022-09-02T08:49:16.104Z,2.10
2022-09-02T08:51:53.428Z,2.90
2022-09-02T08:54:31.715Z,4.40
2022-09-02T08:57:03.630Z,2.00
2022-09-02T08:59:36.814Z,3.50
2022-09-02T09:02:21.722Z,3.00
2022-09-02T09:05:06.808Z,3.50
2022-09-02T09:07:47.975Z,1.70
2022-09-02T09:10:26.683Z,2.10
2022-09-02T09:13:08.898Z,1.60
2022-09-02T09:15:51.188Z,1.70
2022-09-02T09:18:30.548Z,1.60
2022-09-02T09:21:03.389Z,1.40
2022-09-02T09:23:39.055Z,1.60
2022-09-02T09:26:13.694Z,1.40
2022-09-02T09:28:48.215Z,2.60
2022-09-02T09:31:25.255Z,3.80
2022-09-02T09:34:02.389Z,1.20
2022-09-02T09:36:51.646Z,4.70
2022-09-02T09:39:30.117Z,2.60
2022-09-02T09:42:04.027Z,3.90
2022-09-02T09:44:48.242Z,4.40
2022-09-02T09:47:23.057Z,5.50
2022-09-02T09:50:10.791Z,1.10
2022-09-02T09:52:44.417Z,1.10
2022-09-02T09:55:24.862Z,0.70
2022-09-02T09:58:11.197Z,1.70
2022-09-02T10:00:44.222Z,4.20
2022-09-02T10:03:26.663Z,2.20
2022-09-02T10:06:22.634Z,1.20
2022-09-02T10:08:57.311Z,3.40
2022-09-02T10:11:31.720Z,6.50
2022-09-02T10:14:05.282Z,2.80
2022-09-02T10:16:54.779Z,2.30
2022-09-02T10:19:36.240Z,2.20
2022-09-02T10:22:37.919Z,2.60
2022-09-02T10:25:35.060Z,2.90
2022-09-02T10:28:17.552Z,3.80
2022-09-02T10:30:57.051Z,3.40
2022-09-02T10:33:37.584Z,2.70
2022-09-02T10:36:23.315Z,3.10
2022-09-02T10:39:03.713Z,1.90
2022-09-02T10:44:31.451Z,4.60
2022-09-02T10:47:06.851Z,1.30
2022-09-02T10:49:55.338Z,4.60
2022-09-02T10:52:42.653Z,3.70
2022-09-02T10:55:23.234Z,2.00
2022-09-02T10:58:01.314Z,3.50
2022-09-02T11:00:36.412Z,4.10
2022-09-02T11:03:14.611Z,2.20
2022-09-02T11:05:52.962Z,1.60
2022-09-02T11:08:37.682Z,2.80
2022-09-02T11:11:14.888Z,1.40
2022-09-02T11:13:59.874Z,2.80
2022-09-02T11:19:16.275Z,0.70
2022-09-02T11:21:58.166Z,1.80
2022-09-02T11:24:36.240Z,1.40
2022-09-02T11:27:32.266Z,1.20
2022-09-02T11:32:44.134Z,1.10
2022-09-02T11:35:21.723Z,3.40
2022-09-02T11:37:58.242Z,0.60
2022-09-02T11:40:38.869Z,2.60
2022-09-02T11:43:33.194Z,2.90
2022-09-02T11:46:46.446Z,1.50
2022-09-02T11:49:44.071Z,3.50
2022-09-02T11:52:29.698Z,6.30
2022-09-02T11:55:12.388Z,1.90
2022-09-02T11:57:44.932Z,3.60
2022-09-02T12:00:31.653Z,2.20
2022-09-02T12:03:42.952Z,4.30
2022-09-02T12:06:20.531Z,1.90
2022-09-02T12:09:12.408Z,5.10
2022-09-02T12:11:53.241Z,2.20
2022-09-02T12:15:11.651Z,5.90
2022-09-02T12:18:17.369Z,2.00
2022-09-02T12:21:16.357Z,1.50
2022-09-02T12:24:13.234Z,3.10
2022-09-02T12:27:08.154Z,1.10
2022-09-02T12:29:40.286Z,1.20
2022-09-02T12:32:12.491Z,1.80
2022-09-02T12:34:57.919Z,2.80
2022-09-02T12:37:54.382Z,1.20
2022-09-02T12:40:52.244Z,1.70
2022-09-02T12:43:31.147Z,1.50
2022-09-02T12:46:12.561Z,1.00
2022-09-02T12:48:53.057Z,3.80
2022-09-02T12:51:56.552Z,19.00
2022-09-02T12:54:37.881Z,13.90
2022-09-02T12:57:11.626Z,1.90
2022-09-02T12:59:45.080Z,1.10
2022-09-02T13:02:45.846Z,2.10
2022-09-02T13:05:26.759Z,4.00
2022-09-02T13:08:34.425Z,2.80
2022-09-02T13:11:46.417Z,2.20
2022-09-02T13:14:43.913Z,3.10
2022-09-02T13:17:37.088Z,1.40
2022-09-02T13:20:55.177Z,1.00
2022-09-02T13:24:14.071Z,6.90
2022-09-02T13:27:03.609Z,3.40
2022-09-02T13:30:02.226Z,2.50
2022-09-02T13:32:35.186Z,3.90
2022-09-02T13:35:11.768Z,0.90
2022-09-02T13:40:24.805Z,1.00
2022-09-02T13:42:58.798Z,1.60
2022-09-02T13:45:34.053Z,1.20
2022-09-02T13:48:12.204Z,2.20
2022-09-02T13:50:47.979Z,4.00
2022-09-02T13:53:59.101Z,3.20
2022-09-02T13:56:30.663Z,1.20
2022-09-02T13:59:02.521Z,3.10
2022-09-02T14:01:38.273Z,2.60
2022-09-02T14:04:16.248Z,3.30
2022-09-02T14:06:50.812Z,2.30
2022-09-02T14:09:27.285Z,2.10
2022-09-02T14:12:00.517Z,2.20
2022-09-02T14:14:32.855Z,1.50
2022-09-02T14:17:25.262Z,5.10
2022-09-02T14:20:11.976Z,1.80
2022-09-02T14:22:44.853Z,4.00
2022-09-02T14:25:18.144Z,1.50
2022-09-02T14:27:54.230Z,4.70
2022-09-02T14:30:34.838Z,1.40
2022-09-02T14:33:28.555Z,2.10
2022-09-02T14:36:05.785Z,2.20
2022-09-02T14:38:50.818Z,7.20
2022-09-02T14:41:28.600Z,4.40
2022-09-02T14:44:09.271Z,2.60
2022-09-02T14:46:45.802Z,2.30
2022-09-02T14:49:24.559Z,3.90
2022-09-02T14:51:59.093Z,2.70
2022-09-02T14:54:43.141Z,1.90
2022-09-02T14:57:28.084Z,2.70
2022-09-02T15:00:01.691Z,4.00
2022-09-02T15:02:36.928Z,6.10
2022-09-02T15:05:14.503Z,7.10
2022-09-02T15:07:46.665Z,2.10
2022-09-02T15:10:18.551Z,3.80
2022-09-02T15:12:54.909Z,3.00
2022-09-02T15:15:27.781Z,3.40
2022-09-02T15:18:00.310Z,2.00
2022-09-02T15:20:32.318Z,2.20
2022-09-02T15:23:04.342Z,2.80
2022-09-02T15:25:36.478Z,2.90
2022-09-02T15:28:08.414Z,2.00
2022-09-02T15:30:40.782Z,1.20
2022-09-02T15:33:14.724Z,3.40
2022-09-02T15:35:50.023Z,2.30
2022-09-02T15:38:22.437Z,2.00
2022-09-02T15:40:54.472Z,3.10
2022-09-02T15:43:27.052Z,1.70
2022-09-02T15:45:58.950Z,2.90
2022-09-02T15:48:33.479Z,1.60
2022-09-02T15:51:13.833Z,2.90
2022-09-02T15:53:46.190Z,1.10
2022-09-02T15:56:24.137Z,2.10
2022-09-02T15:59:00.082Z,3.90
2022-09-02T16:01:33.764Z,2.00
2022-09-02T16:04:06.928Z,4.50
2022-09-02T16:06:41.321Z,4.80
2022-09-02T16:09:15.208Z,2.60
2022-09-02T16:11:51.542Z,2.40
2022-09-02T16:14:24.779Z,1.10
2022-09-02T16:16:58.254Z,5.20
2022-09-02T16:19:30.638Z,3.40
2022-09-02T16:22:03.137Z,3.60
2022-09-02T16:24:37.598Z,2.60
2022-09-02T16:27:10.099Z,1.70
2022-09-02T16:29:42.369Z,2.00
2022-09-02T16:32:26.753Z,8.60
2022-09-02T16:34:59.814Z,4.70
2022-09-02T16:37:31.724Z,5.00
2022-09-02T16:40:04.747Z,3.90
2022-09-02T16:42:38.419Z,7.90
2022-09-02T16:45:14.202Z,2.90
2022-09-02T16:47:46.152Z,3.20
2022-09-02T16:50:18.450Z,4.10
2022-09-02T16:52:50.555Z,4.00
2022-09-02T16:55:22.348Z,3.20
2022-09-02T16:57:54.288Z,2.40
2022-09-02T17:00:26.621Z,3.50
2022-09-02T17:02:58.690Z,4.00
2022-09-02T17:05:31.033Z,4.00
2022-09-02T17:08:03.294Z,4.70
2022-09-02T17:10:36.056Z,6.80
2022-09-02T17:13:07.942Z,5.60
2022-09-02T17:15:40.533Z,4.80
2022-09-02T17:18:12.597Z,3.10
2022-09-02T17:20:44.561Z,3.30
2022-09-02T17:23:17.031Z,5.30
2022-09-02T17:25:49.472Z,2.90
2022-09-02T17:28:21.546Z,4.70
2022-09-02T17:30:53.651Z,3.30
2022-09-02T17:33:25.779Z,2.30
2022-09-02T17:36:01.745Z,3.00
2022-09-02T17:38:33.582Z,7.80
2022-09-02T17:41:23.297Z,2.60
2022-09-02T17:43:55.704Z,3.10
2022-09-02T17:46:27.893Z,3.10
2022-09-02T17:49:16.311Z,3.20
2022-09-02T17:51:50.376Z,2.60
2022-09-02T17:54:23.529Z,3.10
2022-09-02T17:57:09.752Z,4.10
2022-09-02T17:59:53.455Z,7.70
2022-09-02T18:02:50.943Z,6.10
2022-09-02T18:05:32.531Z,5.20
2022-09-02T18:08:10.482Z,8.60
2022-09-02T18:10:52.846Z,12.40
2022-09-02T18:13:35.312Z,10.10
2022-09-02T18:16:20.901Z,13.10
2022-09-02T18:19:04.554Z,8.70
2022-09-02T18:21:49.401Z,12.60
2022-09-02T18:24:36.194Z,9.30
2022-09-02T18:27:17.833Z,13.10
2022-09-02T18:30:01.229Z,7.50
2022-09-02T18:32:48.515Z,10.30
2022-09-02T18:35:32.905Z,8.60
2022-09-02T18:38:16.876Z,9.50
2022-09-02T18:40:54.726Z,10.30
2022-09-02T18:43:34.903Z,10.10
2022-09-02T18:46:08.857Z,9.60
2022-09-02T18:48:42.035Z,7.80
2022-09-02T18:51:24.481Z,5.30
2022-09-02T18:54:01.084Z,8.90
2022-09-02T18:56:38.966Z,8.10
2022-09-02T18:59:14.250Z,10.10
2022-09-02T19:01:50.977Z,5.40
2022-09-02T19:04:29.438Z,6.90
2022-09-02T19:07:16.362Z,9.70
2022-09-02T19:09:49.502Z,10.30
2022-09-02T19:12:22.012Z,8.50
2022-09-02T19:14:54.186Z,5.20
2022-09-02T19:17:26.249Z,7.60
2022-09-02T19:19:58.112Z,4.10
2022-09-02T19:22:30.701Z,6.20
2022-09-02T19:25:08.494Z,9.50
2022-09-02T19:27:43.238Z,6.00
2022-09-02T19:30:18.790Z,7.60
2022-09-02T19:32:53.028Z,6.90
2022-09-02T19:35:30.882Z,4.70
2022-09-02T19:38:03.707Z,7.10
2022-09-02T19:40:40.069Z,5.60
2022-09-02T19:43:13.031Z,7.10
2022-09-02T19:45:48.997Z,6.40
2022-09-02T19:48:21.725Z,6.60
2022-09-02T19:50:54.015Z,5.90
2022-09-02T19:53:30.396Z,7.10
2022-09-02T19:56:02.769Z,8.40
2022-09-02T19:58:34.905Z,5.00
2022-09-02T20:01:09.248Z,6.50
2022-09-02T20:03:41.314Z,9.80
2022-09-02T20:06:13.401Z,5.60
2022-09-02T20:08:45.977Z,6.70
2022-09-02T20:11:18.732Z,5.50
2022-09-02T20:13:50.956Z,5.20
2022-09-02T20:16:25.277Z,7.30
2022-09-02T20:18:57.882Z,4.00
2022-09-02T20:21:31.853Z,6.00
2022-09-02T20:24:08.247Z,6.70
2022-09-02T20:26:49.759Z,5.40
2022-09-02T20:29:32.547Z,6.20
2022-09-02T20:32:14.054Z,6.40
2022-09-02T20:35:03.837Z,4.50
2022-09-02T20:37:50.691Z,8.50
2022-09-02T20:40:34.933Z,10.90
2022-09-02T20:43:36.409Z,5.70
2022-09-02T20:46:22.280Z,6.10
2022-09-02T20:49:12.211Z,9.00
2022-09-02T20:51:55.000Z,8.90
2022-09-02T20:54:39.350Z,5.70
2022-09-02T20:57:23.556Z,5.20
2022-09-02T21:00:07.305Z,7.00
2022-09-02T21:02:46.369Z,5.20
2022-09-02T21:05:22.811Z,4.90
2022-09-02T21:08:02.780Z,8.70
2022-09-02T21:10:39.322Z,3.80
2022-09-02T21:13:16.490Z,4.50
2022-09-02T21:15:54.955Z,4.50
2022-09-02T21:18:34.436Z,6.30
2022-09-02T21:21:12.674Z,6.30
2022-09-02T21:23:49.050Z,5.40
2022-09-02T21:26:26.113Z,5.40
2022-09-02T21:29:06.063Z,6.10
2022-09-02T21:31:43.425Z,5.20
2022-09-02T21:34:22.583Z,7.40
2022-09-02T21:36:57.043Z,9.40
2022-09-02T21:39:32.674Z,5.60
2022-09-02T21:42:16.423Z,8.00
2022-09-02T21:45:05.064Z,7.90
2022-09-02T21:47:47.320Z,6.80
2022-09-02T21:50:29.796Z,8.40
2022-09-02T21:53:16.859Z,7.90
2022-09-02T21:55:59.355Z,9.30
2022-09-02T21:58:48.384Z,6.50
2022-09-02T22:01:35.523Z,5.10
2022-09-02T22:04:24.427Z,7.70
2022-09-02T22:07:01.142Z,6.00
2022-09-02T22:09:34.229Z,7.00
2022-09-02T22:12:11.188Z,6.70
2022-09-02T22:14:50.730Z,6.20
2022-09-02T22:17:33.721Z,7.50
2022-09-02T22:20:09.828Z,12.30
2022-09-02T22:22:47.171Z,7.40
2022-09-02T22:25:23.430Z,8.30
2022-09-02T22:28:04.732Z,7.30
2022-09-02T22:30:40.817Z,9.70
2022-09-02T22:33:17.764Z,8.80
2022-09-02T22:38:30.405Z,6.90
2022-09-02T22:41:07.390Z,9.10
2022-09-02T22:46:40.133Z,9.40
2022-09-02T22:52:31.220Z,8.60
2022-09-02T22:55:03.479Z,8.80
2022-09-02T22:57:45.947Z,11.00
2022-09-02T23:00:20.715Z,9.40
2022-09-02T23:03:06.727Z,10.70
2022-09-02T23:05:56.470Z,10.30
2022-09-02T23:08:28.329Z,12.40
2022-09-02T23:11:06.731Z,11.10
2022-09-02T23:13:53.384Z,11.80
2022-09-02T23:16:35.295Z,14.00
2022-09-02T23:19:17.339Z,9.70
2022-09-02T23:22:01.167Z,10.90
2022-09-02T23:24:45.375Z,11.30
2022-09-02T23:27:27.047Z,9.60
2022-09-02T23:29:59.117Z,9.20
2022-09-02T23:32:46.528Z,7.70
2022-09-02T23:35:24.286Z,7.90
2022-09-02T23:38:18.483Z,9.30
2022-09-02T23:40:58.353Z,7.30
2022-09-02T23:43:30.780Z,10.60
2022-09-02T23:46:15.892Z,9.80
2022-09-02T23:48:56.477Z,8.40
2022-09-02T23:51:36.700Z,10.50
2022-09-02T23:54:25.695Z,7.80
2022-09-02T23:57:09.642Z,12.10
